Time;durP1;ratioP1;P1;durP2;ratioP2;P2;SDS_P1;SDS_P2;PMS_P1;PMS_P2;Temp;Humidity;BMP_temperature;BMP_pressure;BME280_temperature;BME280_humidity;BME280_pressure;Samples;Min_cycle;Max_cycle;Signal;HPM_P1;HPM_P2
2022/05/05 00:00:16;;;;;;;4.40;1.48;;;20.70;99.90;;;;;;5102002;28;20195;-82
2022/05/05 00:02:46;;;;;;;2.70;1.42;;;20.80;99.90;;;;;;5103533;28;20242;-82
2022/05/05 00:05:20;;;;;;;3.38;1.30;;;20.80;99.90;;;;;;5095261;28;20194;-82
2022/05/05 00:07:50;;;;;;;1.95;1.20;;;20.90;99.90;;;;;;5108913;28;20205;-83
2022/05/05 00:16:05;;;;;;;3.03;1.30;;;20.80;99.90;;;;;;5077785;27;20290;-82
2022/05/05 00:18:36;;;;;;;1.70;1.15;;;20.90;99.90;;;;;;5094525;28;20216;-82
2022/05/05 00:21:06;;;;;;;2.20;1.02;;;21.00;99.90;;;;;;5104279;28;20253;-83
2022/05/05 00:23:37;;;;;;;1.60;1.23;;;21.00;99.90;;;;;;5109382;28;20763;-83
2022/05/05 00:26:08;;;;;;;1.20;1.00;;;21.00;99.90;;;;;;5095772;28;20686;-83
2022/05/05 00:28:38;;;;;;;1.70;1.20;;;21.00;99.90;;;;;;5098228;28;20222;-83
2022/05/05 00:31:11;;;;;;;1.50;1.05;;;21.10;99.90;;;;;;5110729;28;20206;-84
2022/05/05 00:33:42;;;;;;;1.40;1.27;;;21.00;99.90;;;;;;5116613;28;20336;-84
2022/05/05 00:36:12;;;;;;;2.15;1.23;;;21.10;99.90;;;;;;5116030;28;20247;-83
2022/05/05 00:38:43;;;;;;;2.75;1.23;;;21.10;99.90;;;;;;5110193;28;20203;-83
2022/05/05 00:41:14;;;;;;;3.55;1.50;;;21.10;99.90;;;;;;5091396;28;20191;-84
2022/05/05 00:43:44;;;;;;;2.65;1.40;;;21.10;99.90;;;;;;5096328;28;20222;-84
2022/05/05 00:46:17;;;;;;;3.00;1.40;;;21.20;99.90;;;;;;5101779;28;20194;-84
2022/05/05 00:48:50;;;;;;;1.98;1.30;;;21.20;99.90;;;;;;5106002;28;20187;-83
2022/05/05 00:51:22;;;;;;;2.75;1.50;;;21.20;99.90;;;;;;5105986;28;20229;-83
2022/05/05 00:53:54;;;;;;;5.30;1.40;;;21.30;99.90;;;;;;5084695;28;20203;-83
2022/05/05 00:56:26;;;;;;;4.60;1.63;;;21.30;99.90;;;;;;5089027;28;20225;-83
2022/05/05 00:58:58;;;;;;;2.70;1.42;;;21.30;99.90;;;;;;5114543;28;20225;-83
2022/05/05 01:01:30;;;;;;;2.92;1.40;;;21.30;99.90;;;;;;5083873;28;20211;-81
2022/05/05 01:04:01;;;;;;;2.63;1.70;;;21.30;99.90;;;;;;5093273;28;20271;-81
2022/05/05 01:06:33;;;;;;;3.70;1.30;;;21.30;99.90;;;;;;5091449;28;20201;-81
2022/05/05 01:09:05;;;;;;;2.22;1.30;;;21.30;99.90;;;;;;5101668;28;20190;-81
2022/05/05 01:11:36;;;;;;;1.77;1.10;;;21.20;99.90;;;;;;5100457;28;20202;-81
2022/05/05 01:14:07;;;;;;;2.42;1.30;;;21.20;99.90;;;;;;5108005;28;20191;-80
2022/05/05 01:16:40;;;;;;;2.28;1.50;;;21.30;99.90;;;;;;5113230;28;20298;-81
2022/05/05 01:19:10;;;;;;;2.22;1.30;;;21.30;99.90;;;;;;5105466;28;20188;-81
2022/05/05 01:21:43;;;;;;;3.30;1.35;;;21.40;99.90;;;;;;5093698;28;20198;-80
2022/05/05 01:24:13;;;;;;;1.35;1.10;;;21.30;99.90;;;;;;5093103;28;20222;-80
2022/05/05 01:29:31;;;;;;;3.97;2.22;;;21.30;99.90;;;;;;5086677;28;20562;-80
2022/05/05 01:32:01;;;;;;;4.35;2.63;;;21.30;99.90;;;;;;5100787;28;20572;-80
2022/05/05 01:34:32;;;;;;;1.98;1.10;;;21.30;99.90;;;;;;5099566;28;20253;-81
2022/05/05 01:37:04;;;;;;;1.95;1.20;;;21.30;99.90;;;;;;5111222;28;20666;-81
2022/05/05 01:39:35;;;;;;;1.67;0.98;;;21.30;99.90;;;;;;5106079;28;20196;-81
2022/05/05 01:42:06;;;;;;;3.97;1.30;;;21.30;99.90;;;;;;5092579;28;20191;-81
2022/05/05 01:44:37;;;;;;;2.55;0.80;;;21.40;99.90;;;;;;5089152;28;20231;-81
2022/05/05 01:47:08;;;;;;;1.83;1.00;;;21.40;99.90;;;;;;5112120;28;20202;-81
2022/05/05 01:49:38;;;;;;;2.03;0.88;;;21.50;99.90;;;;;;5112977;28;20232;-81
2022/05/05 01:52:14;;;;;;;1.58;0.90;;;21.50;99.90;;;;;;5105852;28;20294;-81
2022/05/05 01:54:44;;;;;;;1.23;0.98;;;21.60;99.90;;;;;;5091634;28;20211;-81
2022/05/05 01:57:15;;;;;;;2.42;1.20;;;21.60;99.90;;;;;;5090265;28;20187;-80
2022/05/05 01:59:45;;;;;;;0.60;0.60;;;21.60;99.90;;;;;;5089842;28;20187;-80
2022/05/05 02:02:16;;;;;;;3.38;0.90;;;21.70;99.90;;;;;;5089970;28;20231;-80
2022/05/05 02:04:47;;;;;;;1.38;0.80;;;21.70;99.90;;;;;;5091077;28;20230;-80
2022/05/05 02:07:19;;;;;;;4.00;1.05;;;21.80;99.90;;;;;;5090351;28;20248;-79
2022/05/05 02:09:50;;;;;;;1.40;0.90;;;22.00;99.90;;;;;;5077763;28;20192;-80
2022/05/05 02:12:20;;;;;;;1.58;0.90;;;22.10;99.90;;;;;;5091376;28;20191;-80
2022/05/05 02:14:51;;;;;;;1.52;0.85;;;22.30;99.90;;;;;;5083367;28;20302;-81
2022/05/05 02:17:21;;;;;;;1.95;1.10;;;22.40;99.90;;;;;;5087019;28;20542;-80
2022/05/05 02:19:52;;;;;;;2.00;0.90;;;22.50;99.90;;;;;;5092752;28;20642;-81
2022/05/05 02:22:24;;;;;;;0.98;0.88;;;22.60;99.90;;;;;;5109505;28;20556;-81
2022/05/05 02:24:55;;;;;;;1.48;0.90;;;22.50;99.90;;;;;;5108749;28;20218;-81
2022/05/05 02:27:26;;;;;;;2.88;1.00;;;22.50;99.90;;;;;;5093050;28;20634;-81
2022/05/05 02:29:57;;;;;;;1.27;0.80;;;22.60;99.90;;;;;;5098038;28;20186;-81
2022/05/05 02:32:28;;;;;;;6.20;0.90;;;22.60;99.90;;;;;;5082528;28;20195;-80
2022/05/05 02:34:58;;;;;;;2.08;0.80;;;22.70;99.90;;;;;;5109481;28;20199;-84
2022/05/05 02:40:17;;;;;;;0.88;0.55;;;22.80;99.90;;;;;;5106443;28;20209;-83
2022/05/05 02:42:48;;;;;;;0.82;0.55;;;22.70;99.90;;;;;;5100281;28;20244;-83
2022/05/05 02:45:18;;;;;;;1.15;0.70;;;22.80;99.90;;;;;;5102553;28;20191;-83
2022/05/05 02:47:49;;;;;;;1.02;0.80;;;22.90;99.90;;;;;;5101659;28;20552;-80
2022/05/05 02:50:20;;;;;;;1.05;0.77;;;23.00;99.90;;;;;;5103686;28;20195;-83
2022/05/05 02:52:53;;;;;;;1.83;1.02;;;23.00;99.90;;;;;;5109064;28;20211;-83
2022/05/05 02:55:22;;;;;;;0.80;0.60;;;23.10;99.90;;;;;;5103655;28;20237;-83
2022/05/05 02:57:53;;;;;;;0.70;0.70;;;23.10;99.90;;;;;;5100211;28;20226;-84
2022/05/05 03:00:24;;;;;;;1.92;0.75;;;23.00;99.90;;;;;;5105074;28;20203;-83
2022/05/05 03:02:56;;;;;;;3.08;0.90;;;23.00;99.90;;;;;;5101469;28;20219;-83
2022/05/05 03:05:27;;;;;;;2.65;0.80;;;23.00;99.90;;;;;;5101199;28;20204;-83
2022/05/05 03:08:02;;;;;;;1.50;0.80;;;22.90;99.90;;;;;;5109945;28;20186;-83
2022/05/05 03:10:32;;;;;;;1.52;0.80;;;23.10;99.90;;;;;;5098941;28;20191;-81
2022/05/05 03:13:03;;;;;;;1.48;0.70;;;23.10;99.90;;;;;;5098562;28;20654;-80
2022/05/05 03:15:33;;;;;;;0.90;0.70;;;23.00;99.90;;;;;;5112896;28;20524;-81
2022/05/05 03:18:05;;;;;;;2.28;0.90;;;23.00;99.90;;;;;;5099731;28;20643;-81
2022/05/05 03:20:35;;;;;;;3.67;0.82;;;23.00;99.90;;;;;;5093719;28;20210;-81
2022/05/05 03:23:08;;;;;;;1.08;0.68;;;23.00;99.90;;;;;;5091480;28;20249;-81
2022/05/05 03:25:39;;;;;;;1.40;0.70;;;23.00;99.90;;;;;;5092727;28;20187;-81
2022/05/05 03:28:10;;;;;;;4.25;0.90;;;23.00;99.90;;;;;;5102546;28;20274;-80
2022/05/05 03:30:40;;;;;;;2.10;1.05;;;23.00;99.90;;;;;;5104961;28;20256;-84
2022/05/05 03:33:11;;;;;;;1.17;0.70;;;23.10;99.90;;;;;;5104923;28;20182;-83
2022/05/05 03:35:42;;;;;;;1.25;0.80;;;23.10;99.90;;;;;;5094624;28;20194;-83
2022/05/05 03:38:14;;;;;;;2.15;0.70;;;23.10;99.90;;;;;;5104448;28;20199;-83
2022/05/05 03:40:45;;;;;;;1.33;0.68;;;23.00;99.90;;;;;;5087283;28;20248;-81
2022/05/05 03:43:16;;;;;;;3.38;0.77;;;23.00;99.90;;;;;;5093772;28;20192;-81
2022/05/05 03:45:47;;;;;;;2.85;0.77;;;22.90;99.90;;;;;;5094324;28;20183;-81
2022/05/05 03:48:17;;;;;;;1.38;0.70;;;22.90;99.90;;;;;;5112365;28;20199;-80
2022/05/05 03:50:48;;;;;;;1.17;0.70;;;22.90;99.90;;;;;;5109936;28;20241;-80
2022/05/05 03:53:21;;;;;;;1.38;0.90;;;22.90;99.90;;;;;;5097263;28;20191;-80
2022/05/05 03:55:51;;;;;;;1.95;0.80;;;22.90;99.90;;;;;;5092711;28;20706;-80
2022/05/05 03:58:22;;;;;;;1.77;0.75;;;22.90;99.90;;;;;;5088169;28;20217;-80
2022/05/05 04:00:52;;;;;;;1.10;0.65;;;23.00;99.90;;;;;;5092932;28;20204;-80
2022/05/05 04:03:41;;;;;;;1.30;0.80;;;23.00;99.90;;;;;;5094072;28;20227;-81
2022/05/05 04:06:13;;;;;;;1.92;1.20;;;23.00;99.90;;;;;;5104220;28;20588;-81
2022/05/05 04:08:46;;;;;;;2.22;1.00;;;23.00;99.90;;;;;;5098284;28;20261;-80
2022/05/05 04:11:17;;;;;;;2.80;1.00;;;22.90;99.90;;;;;;5092346;28;20195;-80
2022/05/05 04:13:48;;;;;;;1.92;0.82;;;22.90;99.90;;;;;;5085874;28;20203;-80
2022/05/05 04:16:18;;;;;;;1.50;0.93;;;22.80;99.90;;;;;;5092148;28;20198;-80
2022/05/05 04:18:49;;;;;;;2.30;1.10;;;22.80;99.90;;;;;;5101958;28;20230;-80
2022/05/05 04:21:20;;;;;;;3.75;1.40;;;22.80;99.90;;;;;;5097930;28;20199;-80
2022/05/05 04:23:52;;;;;;;2.63;1.20;;;22.80;99.90;;;;;;5092073;28;20211;-80
2022/05/05 04:26:24;;;;;;;2.63;1.55;;;22.90;99.90;;;;;;5096345;28;20307;-82
2022/05/05 04:28:56;;;;;;;2.90;1.30;;;22.90;99.90;;;;;;5111669;28;20266;-81
2022/05/05 04:31:31;;;;;;;2.00;1.10;;;22.90;99.90;;;;;;5101065;28;20201;-82
2022/05/05 04:34:01;;;;;;;3.22;1.10;;;22.90;99.90;;;;;;5103678;28;20286;-80
2022/05/05 04:36:34;;;;;;;2.60;1.10;;;22.80;99.90;;;;;;5111610;28;20302;-80
2022/05/05 04:39:08;;;;;;;2.97;1.42;;;22.80;99.90;;;;;;5110639;28;20187;-81
2022/05/05 04:41:38;;;;;;;5.75;1.42;;;22.70;99.90;;;;;;5108861;28;20614;-80
2022/05/05 04:44:09;;;;;;;2.00;1.40;;;22.70;99.90;;;;;;5089099;28;20211;-79
2022/05/05 04:46:39;;;;;;;4.50;1.90;;;22.70;99.90;;;;;;5088048;28;20202;-80
2022/05/05 04:49:10;;;;;;;2.80;1.85;;;22.60;99.90;;;;;;5090613;28;20248;-80
2022/05/05 04:51:41;;;;;;;2.03;1.30;;;22.50;99.90;;;;;;5091331;28;20190;-80
2022/05/05 04:54:14;;;;;;;2.92;1.35;;;22.50;99.90;;;;;;5090906;28;20200;-80
2022/05/05 04:56:44;;;;;;;1.83;1.10;;;22.40;99.90;;;;;;5090594;28;20680;-80
2022/05/05 04:59:15;;;;;;;2.22;1.05;;;22.40;99.90;;;;;;5092017;28;20215;-80
2022/05/05 05:01:45;;;;;;;2.63;1.10;;;22.40;99.90;;;;;;5090163;28;20226;-82
2022/05/05 05:04:16;;;;;;;2.58;1.10;;;22.30;99.90;;;;;;5105845;28;20215;-83
2022/05/05 05:06:47;;;;;;;2.05;1.20;;;22.30;99.90;;;;;;5110959;28;20202;-81
2022/05/05 05:09:19;;;;;;;2.92;1.30;;;22.30;99.90;;;;;;5095909;28;20200;-81
2022/05/05 05:11:50;;;;;;;1.67;0.93;;;22.30;99.90;;;;;;5102518;28;20203;-80
2022/05/05 05:14:20;;;;;;;3.50;1.23;;;22.30;99.90;;;;;;5107105;28;20187;-82
2022/05/05 05:16:51;;;;;;;1.42;0.95;;;22.40;99.90;;;;;;5090850;28;20195;-81
2022/05/05 05:19:22;;;;;;;4.97;1.20;;;22.40;99.90;;;;;;5085801;28;20192;-82
2022/05/05 05:21:52;;;;;;;3.67;1.40;;;22.40;99.90;;;;;;5091841;28;20654;-82
2022/05/05 05:24:25;;;;;;;5.43;0.90;;;22.40;99.90;;;;;;5112961;28;20279;-82
2022/05/05 05:26:55;;;;;;;3.28;0.98;;;22.40;99.90;;;;;;5101916;28;20209;-82
2022/05/05 05:29:26;;;;;;;4.35;1.10;;;22.30;99.90;;;;;;5110843;28;20191;-82
2022/05/05 05:31:57;;;;;;;3.58;1.20;;;22.30;99.90;;;;;;5089206;28;20199;-82
2022/05/05 05:34:27;;;;;;;2.38;1.08;;;22.30;99.90;;;;;;5094393;28;20195;-81
2022/05/05 05:36:58;;;;;;;2.63;1.10;;;22.20;99.90;;;;;;5085383;28;20579;-83
2022/05/05 05:39:31;;;;;;;5.78;1.10;;;22.20;99.90;;;;;;5102985;28;20194;-82
2022/05/05 05:42:01;;;;;;;2.42;1.13;;;22.20;99.90;;;;;;5093589;28;20236;-81
2022/05/05 05:44:32;;;;;;;2.35;1.02;;;22.30;99.90;;;;;;5084606;28;20226;-82
2022/05/05 05:47:03;;;;;;;3.95;1.27;;;22.30;99.90;;;;;;5107115;28;20259;-82
2022/05/05 05:49:34;;;;;;;4.32;1.20;;;22.30;99.90;;;;;;5107269;28;20626;-81
2022/05/05 05:52:04;;;;;;;1.85;1.00;;;22.30;99.90;;;;;;5087293;28;20250;-82
2022/05/05 05:54:37;;;;;;;2.38;1.05;;;22.30;99.90;;;;;;5092153;28;20211;-82
2022/05/05 05:57:08;;;;;;;2.58;1.20;;;22.30;99.90;;;;;;5092954;28;20556;-81
2022/05/05 05:59:39;;;;;;;2.90;1.20;;;22.30;99.90;;;;;;5094790;28;20234;-81
2022/05/05 06:04:57;;;;;;;3.58;1.10;;;22.50;99.90;;;;;;5109104;28;20226;-81
2022/05/05 06:07:27;;;;;;;2.20;1.10;;;22.50;99.90;;;;;;5092856;28;20199;-81
2022/05/05 06:10:00;;;;;;;2.03;1.10;;;22.60;99.90;;;;;;5088155;28;20198;-81
2022/05/05 06:12:31;;;;;;;1.42;0.93;;;22.70;99.90;;;;;;5117107;28;20293;-81
2022/05/05 06:15:01;;;;;;;2.15;1.10;;;22.80;99.90;;;;;;5093271;28;20650;-81
2022/05/05 06:17:32;;;;;;;3.20;1.40;;;22.90;99.90;;;;;;5101337;28;20245;-81
2022/05/05 06:20:03;;;;;;;3.10;1.17;;;23.00;99.90;;;;;;5092496;28;20187;-81
2022/05/05 06:22:34;;;;;;;2.22;1.15;;;23.00;99.90;;;;;;5099984;28;20506;-83
2022/05/05 06:25:07;;;;;;;1.48;0.90;;;23.00;99.90;;;;;;5097698;28;20242;-82
2022/05/05 06:27:39;;;;;;;3.13;1.30;;;23.00;99.90;;;;;;5099455;28;20612;-83
2022/05/05 06:30:13;;;;;;;2.50;1.00;;;22.90;99.90;;;;;;5104147;28;20191;-82
2022/05/05 06:32:43;;;;;;;3.15;1.17;;;22.90;99.90;;;;;;5088747;28;20244;-83
2022/05/05 06:35:15;;;;;;;2.72;0.98;;;22.70;99.90;;;;;;5101121;28;20260;-82
2022/05/05 06:37:50;;;;;;;2.05;1.00;;;22.60;99.90;;;;;;5100947;28;20256;-81
2022/05/05 06:40:22;;;;;;;2.38;1.13;;;22.50;99.90;;;;;;5101431;28;20229;-82
2022/05/05 06:42:53;;;;;;;2.28;1.13;;;22.40;99.90;;;;;;5085101;28;20195;-82
2022/05/05 06:45:24;;;;;;;1.70;1.15;;;22.30;99.90;;;;;;5094039;28;20219;-82
2022/05/05 06:47:58;;;;;;;3.05;1.20;;;22.20;99.90;;;;;;5092562;28;20176;-82
2022/05/05 06:50:29;;;;;;;5.40;1.50;;;22.10;99.90;;;;;;5093123;28;20693;-82
2022/05/05 06:53:00;;;;;;;3.70;1.25;;;22.10;99.90;;;;;;5106616;28;20190;-83
2022/05/05 06:55:33;;;;;;;3.38;0.90;;;22.00;99.90;;;;;;5097103;28;20188;-83
2022/05/05 06:58:03;;;;;;;3.42;1.00;;;21.90;99.90;;;;;;5088120;28;20266;-84
2022/05/05 07:03:17;;;;;;;2.17;1.20;;;21.70;99.90;;;;;;5099430;28;20226;-82
2022/05/05 07:05:48;;;;;;;3.40;1.10;;;21.60;99.90;;;;;;5110227;28;20260;-82
2022/05/05 07:08:18;;;;;;;2.33;1.20;;;21.60;99.90;;;;;;5091748;28;20195;-83
2022/05/05 07:10:57;;;;;;;3.78;1.30;;;21.50;99.90;;;;;;5102982;28;20309;-83
2022/05/05 07:13:28;;;;;;;2.58;0.93;;;21.50;99.90;;;;;;5098379;28;20214;-83
2022/05/05 07:15:59;;;;;;;2.80;1.17;;;21.50;99.90;;;;;;5091532;28;20252;-83
2022/05/05 07:18:29;;;;;;;2.40;1.15;;;21.40;99.90;;;;;;5106398;28;20191;-83
2022/05/05 07:21:00;;;;;;;3.65;1.45;;;21.30;99.90;;;;;;5093478;28;20607;-83
2022/05/05 07:23:30;;;;;;;2.97;1.20;;;21.30;99.90;;;;;;5107632;28;20197;-83
2022/05/05 07:26:06;;;;;;;3.33;1.30;;;21.20;99.90;;;;;;5108050;28;20619;-83
2022/05/05 07:28:37;;;;;;;2.67;1.30;;;21.20;99.90;;;;;;5107641;28;20239;-83
2022/05/05 07:31:08;;;;;;;3.53;1.25;;;21.10;99.90;;;;;;5093446;27;20192;-83
2022/05/05 07:33:38;;;;;;;3.08;1.10;;;21.10;99.90;;;;;;5089867;28;20198;-83
2022/05/05 07:36:09;;;;;;;4.38;1.50;;;21.10;99.90;;;;;;5101699;28;20263;-82
2022/05/05 07:38:40;;;;;;;6.60;1.63;;;21.00;99.90;;;;;;5112388;28;20285;-81
2022/05/05 07:41:12;;;;;;;4.68;1.60;;;21.00;99.90;;;;;;5094917;27;20192;-82
2022/05/05 07:43:43;;;;;;;3.42;1.30;;;21.00;99.90;;;;;;5092862;28;20191;-82
2022/05/05 07:46:17;;;;;;;2.38;1.38;;;20.90;99.90;;;;;;5091934;28;20222;-81
2022/05/05 07:48:48;;;;;;;3.33;1.50;;;20.90;99.90;;;;;;5101108;28;20215;-83
2022/05/05 07:51:19;;;;;;;3.83;1.60;;;20.90;99.90;;;;;;5083799;28;20203;-82
2022/05/05 07:54:34;;;;;;;5.75;1.67;;;20.80;99.90;;;;;;5103830;28;20240;-82
2022/05/05 07:56:43;;;;;;;6.82;1.80;;;20.80;99.90;;;;;;5101228;28;20229;-82
2022/05/05 07:59:14;;;;;;;4.53;1.67;;;20.80;99.90;;;;;;5102581;28;20278;-82
2022/05/05 08:01:44;;;;;;;4.00;1.27;;;20.80;99.90;;;;;;5112189;28;20229;-82
2022/05/05 08:04:15;;;;;;;3.05;1.20;;;20.80;99.90;;;;;;5090687;28;20271;-84
2022/05/05 08:06:47;;;;;;;2.30;1.30;;;20.80;99.90;;;;;;5098901;28;20256;-85
2022/05/05 08:09:18;;;;;;;3.38;1.50;;;20.80;99.90;;;;;;5074855;28;20643;-86
2022/05/05 08:11:50;;;;;;;2.83;1.08;;;20.70;99.90;;;;;;5100984;28;20267;-83
2022/05/05 08:14:21;;;;;;;4.85;1.20;;;20.70;99.90;;;;;;5097838;28;20195;-81
2022/05/05 08:16:51;;;;;;;3.30;1.30;;;20.70;99.90;;;;;;5086775;28;20592;-80
2022/05/05 08:19:22;;;;;;;2.22;1.25;;;20.60;99.90;;;;;;5084314;28;20270;-82
2022/05/05 08:21:53;;;;;;;4.05;1.63;;;20.70;99.90;;;;;;5099711;28;20274;-82
2022/05/05 08:29:58;;;;;;;4.43;1.52;;;20.70;99.90;;;;;;5111419;28;20198;-81
2022/05/05 08:32:29;;;;;;;2.80;1.58;;;20.70;99.90;;;;;;5083414;28;20720;-84
2022/05/05 08:35:00;;;;;;;4.03;1.73;;;20.70;99.90;;;;;;5098540;28;20210;-78
2022/05/05 08:37:30;;;;;;;4.10;1.80;;;20.70;99.90;;;;;;5090883;28;20183;-78
2022/05/05 08:40:02;;;;;;;3.22;1.58;;;20.70;99.90;;;;;;5086767;28;20196;-78
2022/05/05 08:42:34;;;;;;;3.90;1.63;;;20.70;99.90;;;;;;5081144;28;20667;-78
2022/05/05 08:45:05;;;;;;;4.53;1.75;;;20.70;99.90;;;;;;5090496;28;20310;-79
2022/05/05 08:47:36;;;;;;;4.40;1.60;;;20.60;99.90;;;;;;5100514;28;20202;-79
2022/05/05 08:50:10;;;;;;;4.95;1.73;;;20.70;99.90;;;;;;5091010;28;20670;-80
2022/05/05 08:52:48;;;;;;;4.85;1.60;;;20.70;99.90;;;;;;5090615;28;20187;-79
2022/05/05 08:55:21;;;;;;;5.00;2.30;;;20.70;99.90;;;;;;5089952;28;20650;-79
2022/05/05 08:57:53;;;;;;;5.40;2.50;;;20.70;99.90;;;;;;5090580;28;20198;-79
2022/05/05 09:00:27;;;;;;;4.55;2.72;;;20.70;99.90;;;;;;5085744;28;20200;-78
2022/05/05 09:02:59;;;;;;;5.07;2.42;;;20.70;99.90;;;;;;5090116;28;20320;-80
2022/05/05 09:05:49;;;;;;;3.30;2.00;;;20.70;99.90;;;;;;5096441;28;20776;-80
2022/05/05 09:08:30;;;;;;;6.85;2.40;;;20.70;99.90;;;;;;5079544;28;20234;-79
2022/05/05 09:11:03;;;;;;;4.35;2.40;;;20.60;99.90;;;;;;5089758;28;20291;-79
2022/05/05 09:13:36;;;;;;;6.25;3.10;;;20.60;99.90;;;;;;5089658;28;20198;-80
2022/05/05 09:16:08;;;;;;;5.80;2.78;;;20.60;99.90;;;;;;5084985;28;20192;-80
2022/05/05 09:18:39;;;;;;;4.80;2.00;;;20.60;99.90;;;;;;5089962;28;20189;-79
2022/05/05 09:21:10;;;;;;;6.78;2.45;;;20.50;99.90;;;;;;5090518;28;20192;-79
2022/05/05 09:24:34;;;;;;;5.93;2.20;;;20.50;99.90;;;;;;5104851;28;20571;-80
2022/05/05 09:26:35;;;;;;;5.43;2.58;;;20.50;99.90;;;;;;5109405;28;20312;-80
2022/05/05 09:29:22;;;;;;;8.45;3.33;;;20.50;99.90;;;;;;5109115;28;20194;-80
2022/05/05 09:31:52;;;;;;;13.63;4.40;;;20.50;99.90;;;;;;5091210;28;20249;-78
2022/05/05 09:34:23;;;;;;;7.15;3.55;;;20.50;99.90;;;;;;5082643;28;20195;-78
2022/05/05 09:36:54;;;;;;;6.60;3.70;;;20.40;99.90;;;;;;5089552;28;20199;-79
2022/05/05 09:39:24;;;;;;;8.93;3.85;;;20.40;99.90;;;;;;5089856;28;20552;-78
2022/05/05 09:41:55;;;;;;;9.90;4.20;;;20.40;99.90;;;;;;5089386;28;20187;-78
2022/05/05 09:44:29;;;;;;;7.90;4.65;;;20.40;99.90;;;;;;5106787;28;20275;-78
2022/05/05 09:47:03;;;;;;;10.20;5.53;;;20.40;99.90;;;;;;5105704;28;20225;-79
2022/05/05 09:49:33;;;;;;;8.35;4.32;;;20.40;99.90;;;;;;5081290;28;20199;-78
2022/05/05 09:57:43;;;;;;;8.95;4.57;;;20.30;99.90;;;;;;5108793;28;20202;-79
2022/05/05 10:00:44;;;;;;;8.98;3.60;;;20.20;99.90;;;;;;5109605;28;20227;-78
2022/05/05 10:06:08;;;;;;;5.88;2.67;;;20.20;99.90;;;;;;5082400;28;20892;-80
2022/05/05 10:08:43;;;;;;;6.18;2.95;;;20.20;99.90;;;;;;5089423;28;20228;-79
2022/05/05 10:11:19;;;;;;;7.85;4.95;;;20.20;99.90;;;;;;5081173;28;20205;-79
2022/05/05 10:13:51;;;;;;;11.05;5.07;;;20.20;99.90;;;;;;5088924;28;20226;-80
2022/05/05 10:16:25;;;;;;;5.53;2.78;;;20.10;99.90;;;;;;5089274;28;20191;-79
2022/05/05 10:18:56;;;;;;;5.10;2.90;;;20.10;99.90;;;;;;5089041;28;20586;-79
2022/05/05 10:21:53;;;;;;;8.18;2.83;;;20.10;99.90;;;;;;5079818;28;20199;-79
2022/05/05 10:24:28;;;;;;;4.50;2.30;;;20.00;99.90;;;;;;5089328;28;20203;-79
2022/05/05 10:26:59;;;;;;;4.90;2.60;;;20.00;99.90;;;;;;5089009;28;20242;-79
2022/05/05 10:29:43;;;;;;;7.95;2.95;;;20.00;99.90;;;;;;5089033;28;20656;-79
2022/05/05 10:32:17;;;;;;;4.97;2.90;;;19.90;99.90;;;;;;5089958;28;20199;-79
2022/05/05 10:34:48;;;;;;;7.43;3.28;;;19.90;99.90;;;;;;5089446;28;20278;-79
2022/05/05 10:37:22;;;;;;;9.43;3.00;;;19.80;99.90;;;;;;5087675;28;20202;-80
2022/05/05 10:40:03;;;;;;;4.82;2.80;;;19.80;99.90;;;;;;5081019;28;20271;-81
2022/05/05 10:42:40;;;;;;;7.57;3.42;;;19.80;99.90;;;;;;5084281;28;20237;-77
2022/05/05 10:45:18;;;;;;;7.22;5.13;;;19.80;99.90;;;;;;5084270;28;20187;-77
2022/05/05 10:48:38;;;;;;;7.05;3.15;;;19.70;99.90;;;;;;5080581;28;20945;-78
2022/05/05 10:51:12;;;;;;;7.55;2.88;;;19.70;99.90;;;;;;5087471;28;20666;-78
2022/05/05 10:53:44;;;;;;;4.78;2.60;;;19.60;99.90;;;;;;5089206;28;20328;-79
2022/05/05 10:56:32;;;;;;;7.43;2.90;;;19.60;99.90;;;;;;5083782;28;20559;-78
2022/05/05 10:59:05;;;;;;;9.15;3.50;;;19.60;99.90;;;;;;5097258;28;20196;-79
2022/05/05 11:02:04;;;;;;;7.43;3.15;;;19.50;99.90;;;;;;5109335;28;20235;-81
2022/05/05 11:04:35;;;;;;;8.85;3.03;;;19.50;99.90;;;;;;5114901;28;20203;-81
2022/05/05 11:07:36;;;;;;;5.13;3.05;;;19.40;99.90;;;;;;5110215;28;20664;-81
2022/05/05 11:10:10;;;;;;;9.60;3.40;;;19.40;99.90;;;;;;5090446;28;20217;-79
2022/05/05 11:12:41;;;;;;;7.88;3.33;;;19.40;99.90;;;;;;5091890;28;20211;-79
2022/05/05 11:23:51;;;;;;;8.38;3.38;;;19.30;99.90;;;;;;5086052;28;20613;-77
2022/05/05 11:26:23;;;;;;;8.20;3.60;;;19.20;99.90;;;;;;5087894;28;20219;-79
2022/05/05 11:28:55;;;;;;;9.45;3.80;;;19.20;99.90;;;;;;5089960;28;20678;-79
2022/05/05 11:31:28;;;;;;;8.50;3.60;;;19.30;99.90;;;;;;5082898;28;20230;-79
2022/05/05 11:34:03;;;;;;;7.35;3.30;;;19.30;99.90;;;;;;5085136;28;20183;-79
2022/05/05 11:36:34;;;;;;;7.85;3.50;;;19.30;99.90;;;;;;5101207;28;20235;-80
2022/05/05 11:39:08;;;;;;;9.13;3.45;;;19.30;99.90;;;;;;5092366;28;20215;-80
2022/05/05 11:41:39;;;;;;;5.20;3.13;;;19.30;99.90;;;;;;5091860;28;20611;-82
2022/05/05 11:44:20;;;;;;;7.15;2.80;;;19.30;99.90;;;;;;5091767;28;20210;-80
2022/05/05 11:46:50;;;;;;;7.32;3.13;;;19.30;99.90;;;;;;5084781;28;20230;-80
2022/05/05 11:49:21;;;;;;;7.80;2.75;;;19.20;99.90;;;;;;5088780;28;20199;-79
2022/05/05 11:51:53;;;;;;;6.72;2.53;;;19.20;99.90;;;;;;5091607;28;20240;-80
2022/05/05 11:54:32;;;;;;;4.72;2.60;;;19.20;99.90;;;;;;5089045;28;20264;-80
2022/05/05 11:57:03;;;;;;;5.15;2.70;;;19.20;99.90;;;;;;5098421;28;20191;-80
2022/05/05 12:02:22;;;;;;;8.10;2.80;;;19.20;99.90;;;;;;5088626;28;20717;-80
2022/05/05 12:04:54;;;;;;;5.55;2.50;;;19.20;99.90;;;;;;5087792;28;20191;-80
2022/05/05 12:07:26;;;;;;;6.03;2.65;;;19.20;99.90;;;;;;5081690;28;20762;-81
2022/05/05 12:10:00;;;;;;;7.40;2.85;;;19.20;99.90;;;;;;5090561;28;20239;-82
2022/05/05 12:12:32;;;;;;;7.82;3.00;;;19.10;99.90;;;;;;5094252;28;20200;-80
2022/05/05 12:15:04;;;;;;;8.05;2.90;;;19.10;99.90;;;;;;5092997;28;20267;-79
2022/05/05 12:17:39;;;;;;;4.88;2.60;;;19.00;99.90;;;;;;5091463;28;20191;-80
2022/05/05 12:20:11;;;;;;;8.88;3.10;;;19.00;99.90;;;;;;5091191;28;20187;-85
2022/05/05 12:22:43;;;;;;;5.03;2.67;;;19.00;99.90;;;;;;5093377;28;20570;-89
2022/05/05 12:25:16;;;;;;;5.57;2.50;;;19.00;99.90;;;;;;5102705;28;20183;-86
2022/05/05 12:27:48;;;;;;;5.95;2.92;;;19.00;99.90;;;;;;5092473;28;20207;-85
2022/05/05 12:30:33;;;;;;;6.63;3.03;;;18.90;99.90;;;;;;5100485;28;20195;-84
2022/05/05 12:33:04;;;;;;;5.50;2.70;;;18.90;99.90;;;;;;5075825;28;20534;-88
2022/05/05 12:35:36;;;;;;;6.28;2.45;;;18.90;99.90;;;;;;5091302;28;20256;-85
2022/05/05 12:38:08;;;;;;;8.40;2.88;;;18.90;99.90;;;;;;5095120;28;20197;-83
2022/05/05 12:40:42;;;;;;;6.60;2.50;;;18.90;99.90;;;;;;5094400;28;20673;-84
2022/05/05 12:43:14;;;;;;;5.20;2.50;;;18.90;99.90;;;;;;5080726;28;20194;-84
2022/05/05 12:45:45;;;;;;;5.10;2.17;;;18.90;99.90;;;;;;5112605;28;20206;-87
2022/05/05 12:48:17;;;;;;;4.90;2.00;;;18.80;99.90;;;;;;5096845;28;20217;-85
2022/05/05 12:50:49;;;;;;;4.88;1.90;;;18.80;99.90;;;;;;5104569;28;20195;-86
2022/05/05 13:01:44;;;;;;;3.45;1.75;;;18.60;99.90;;;;;;5096288;28;20226;-84
2022/05/05 13:04:18;;;;;;;4.63;1.63;;;18.60;99.90;;;;;;5092201;28;20267;-91
2022/05/05 13:06:50;;;;;;;5.63;1.50;;;18.60;99.90;;;;;;5111230;28;20223;-90
2022/05/05 13:09:22;;;;;;;3.63;1.42;;;18.50;99.90;;;;;;5082340;28;20226;-84
2022/05/05 13:11:54;;;;;;;1.95;1.25;;;18.50;99.90;;;;;;5094215;28;20193;-86
2022/05/05 13:14:26;;;;;;;5.68;1.50;;;18.50;99.90;;;;;;5109441;28;20255;-88
2022/05/05 13:17:00;;;;;;;2.70;1.17;;;18.50;99.90;;;;;;5093203;28;20215;-88
2022/05/05 13:19:31;;;;;;;3.25;1.20;;;18.50;99.90;;;;;;5109560;28;20189;-83
2022/05/05 13:22:02;;;;;;;3.95;1.15;;;18.50;99.90;;;;;;5105840;28;20613;-85
2022/05/05 13:24:33;;;;;;;3.13;1.27;;;18.40;99.90;;;;;;5103995;28;20677;-84
2022/05/05 13:27:05;;;;;;;1.67;1.00;;;18.40;99.90;;;;;;5097974;28;20231;-81
2022/05/05 13:29:36;;;;;;;2.50;1.10;;;18.40;99.90;;;;;;5100057;28;20202;-82
2022/05/05 13:32:08;;;;;;;2.38;0.88;;;18.40;99.90;;;;;;5105787;28;20268;-84
2022/05/05 13:34:38;;;;;;;1.45;0.90;;;18.40;99.90;;;;;;5099899;28;20256;-87
2022/05/05 13:37:09;;;;;;;2.70;1.10;;;18.40;99.90;;;;;;5094574;28;20600;-85
2022/05/05 13:39:40;;;;;;;3.20;0.85;;;18.40;99.90;;;;;;5091797;28;20617;-86
2022/05/05 13:42:13;;;;;;;1.27;0.85;;;18.40;99.90;;;;;;5075736;28;20674;-87
2022/05/05 13:44:43;;;;;;;1.42;0.63;;;18.40;99.90;;;;;;5073803;28;20192;-84
2022/05/05 13:47:14;;;;;;;1.13;0.68;;;18.40;99.90;;;;;;5083076;28;20229;-85
2022/05/05 13:49:45;;;;;;;2.15;0.95;;;18.40;99.90;;;;;;5098052;28;20253;-85
2022/05/05 13:52:15;;;;;;;1.08;0.60;;;18.40;99.90;;;;;;5081214;28;20617;-85
2022/05/05 13:54:46;;;;;;;1.85;0.80;;;18.20;99.90;;;;;;5092836;28;20261;-85
2022/05/05 13:57:19;;;;;;;2.15;0.60;;;18.30;99.90;;;;;;5089952;28;20195;-83
2022/05/05 13:59:50;;;;;;;1.52;0.60;;;18.20;99.90;;;;;;5103500;28;20247;-85
2022/05/05 14:02:20;;;;;;;1.65;0.80;;;18.20;99.90;;;;;;5074316;28;20286;-85